Time;durP1;ratioP1;P1;durP2;ratioP2;P2;SDS_P1;SDS_P2;PMS_P1;PMS_P2;Temp;Humidity;BMP_temperature;BMP_pressure;BME280_temperature;BME280_humidity;BME280_pressure;Samples;Min_cycle;Max_cycle;Signal;HPM_P1;HPM_P2
2023/03/24 00:00:20;;;;;;;5.32;1.80;;;13.50;99.90;;;;;;4990469;28;20490;-68
2023/03/24 00:02:50;;;;;;;3.08;1.50;;;13.50;99.90;;;;;;4987829;28;20034;-68
2023/03/24 00:05:19;;;;;;;4.03;1.95;;;13.50;99.90;;;;;;4989844;28;20026;-68
2023/03/24 00:07:46;;;;;;;3.10;1.30;;;13.50;99.90;;;;;;4988181;28;20125;-67
2023/03/24 00:10:17;;;;;;;3.20;1.38;;;13.50;99.90;;;;;;4989825;28;20117;-67
2023/03/24 00:12:45;;;;;;;2.40;1.27;;;13.50;99.90;;;;;;4988309;28;20045;-67
2023/03/24 00:15:18;;;;;;;2.95;1.73;;;13.50;99.90;;;;;;5005362;28;20065;-68
2023/03/24 00:17:49;;;;;;;1.67;1.30;;;13.50;99.90;;;;;;5001593;28;20042;-67
2023/03/24 00:20:16;;;;;;;2.80;1.40;;;13.50;99.90;;;;;;5007248;28;20498;-68
2023/03/24 00:22:47;;;;;;;2.17;1.40;;;13.50;99.90;;;;;;4987940;28;20042;-67
2023/03/24 00:25:18;;;;;;;4.07;2.03;;;13.50;99.90;;;;;;4990056;28;20033;-68
2023/03/24 00:27:44;;;;;;;4.78;1.38;;;13.40;99.90;;;;;;4972281;28;20044;-69
2023/03/24 00:30:12;;;;;;;5.03;1.60;;;13.40;99.90;;;;;;4972691;28;20025;-68
2023/03/24 00:32:38;;;;;;;5.45;1.40;;;13.40;99.90;;;;;;4988491;28;20515;-69
2023/03/24 00:35:11;;;;;;;2.80;1.20;;;13.40;99.90;;;;;;4987572;28;20485;-68
2023/03/24 00:37:39;;;;;;;2.50;1.52;;;13.40;99.90;;;;;;4972510;28;20034;-68
2023/03/24 00:40:12;;;;;;;2.88;1.25;;;13.40;99.90;;;;;;4988227;28;20034;-68
2023/03/24 00:42:39;;;;;;;2.22;1.27;;;13.40;99.90;;;;;;5005777;28;20052;-68
2023/03/24 00:45:10;;;;;;;5.32;1.38;;;13.40;99.90;;;;;;5003983;28;20033;-68
2023/03/24 00:47:37;;;;;;;4.03;1.75;;;13.40;99.90;;;;;;5006077;28;20049;-68
2023/03/24 00:50:06;;;;;;;2.15;1.40;;;13.30;99.90;;;;;;4987715;28;20052;-68
2023/03/24 00:52:33;;;;;;;3.45;1.60;;;13.30;99.90;;;;;;5005911;28;20030;-68
2023/03/24 00:55:01;;;;;;;6.43;2.20;;;13.30;99.90;;;;;;4970756;28;20030;-68
2023/03/24 00:57:33;;;;;;;5.03;1.45;;;13.30;99.90;;;;;;5004792;28;20044;-68
2023/03/24 01:00:12;;;;;;;2.75;1.50;;;13.20;99.90;;;;;;5004614;28;20112;-68
2023/03/24 01:02:38;;;;;;;4.75;1.45;;;13.20;99.90;;;;;;5005292;28;20076;-68
2023/03/24 01:05:05;;;;;;;2.28;1.27;;;13.20;99.90;;;;;;4987168;28;20025;-69
2023/03/24 01:07:32;;;;;;;2.38;1.27;;;13.30;99.90;;;;;;4988852;28;20032;-68
2023/03/24 01:09:58;;;;;;;2.00;1.23;;;13.30;99.90;;;;;;4970645;28;20033;-68
2023/03/24 01:12:35;;;;;;;2.78;1.63;;;13.30;99.90;;;;;;5005703;28;20037;-68
2023/03/24 01:15:12;;;;;;;2.47;1.10;;;13.20;99.90;;;;;;4987032;28;20032;-68
2023/03/24 01:17:37;;;;;;;2.70;1.27;;;13.20;99.90;;;;;;4972589;28;20108;-68
2023/03/24 01:20:07;;;;;;;2.25;1.35;;;13.20;99.90;;;;;;4987142;28;20137;-68
2023/03/24 01:22:36;;;;;;;2.92;1.20;;;13.20;99.90;;;;;;5001913;28;20564;-68
2023/03/24 01:25:08;;;;;;;2.05;1.42;;;13.20;99.90;;;;;;4986961;28;20479;-68
2023/03/24 01:27:36;;;;;;;3.47;1.45;;;13.20;99.90;;;;;;4988429;28;20061;-68
2023/03/24 01:30:05;;;;;;;2.72;1.15;;;13.30;99.90;;;;;;5004241;28;20080;-68
2023/03/24 01:32:30;;;;;;;2.47;0.90;;;13.40;99.90;;;;;;4988281;28;20034;-67
2023/03/24 01:34:56;;;;;;;2.20;1.17;;;13.40;99.90;;;;;;5004919;28;20088;-68
2023/03/24 01:37:22;;;;;;;2.35;1.10;;;13.40;99.90;;;;;;5009088;28;20057;-67
2023/03/24 01:39:50;;;;;;;4.00;1.83;;;13.30;99.90;;;;;;5002393;28;20460;-69
2023/03/24 01:42:25;;;;;;;2.10;1.08;;;13.30;99.90;;;;;;4989270;28;20033;-67
2023/03/24 01:44:59;;;;;;;2.05;1.00;;;13.30;99.90;;;;;;4976961;28;20018;-70
2023/03/24 01:47:25;;;;;;;3.92;1.25;;;13.30;99.90;;;;;;4989893;28;20030;-68
2023/03/24 01:50:01;;;;;;;4.13;1.58;;;13.30;99.90;;;;;;4985149;28;20041;-68
2023/03/24 01:52:30;;;;;;;1.60;1.20;;;13.30;99.90;;;;;;4989299;28;20501;-68
2023/03/24 01:55:17;;;;;;;3.40;1.10;;;13.40;99.90;;;;;;5003089;28;20037;-68
2023/03/24 01:57:50;;;;;;;2.58;0.93;;;13.40;99.90;;;;;;4988433;28;20099;-67
2023/03/24 02:00:19;;;;;;;3.03;1.02;;;13.40;99.90;;;;;;4989163;28;20026;-68
2023/03/24 02:02:53;;;;;;;1.27;1.08;;;13.40;99.90;;;;;;5004706;28;20482;-70
2023/03/24 02:05:23;;;;;;;2.17;1.13;;;13.40;99.90;;;;;;4977754;28;20109;-67
2023/03/24 02:08:01;;;;;;;1.23;0.70;;;13.40;99.90;;;;;;4987558;28;20054;-68
2023/03/24 02:10:32;;;;;;;2.50;1.70;;;13.30;99.90;;;;;;4994673;28;20035;-67
2023/03/24 02:12:58;;;;;;;2.53;1.23;;;13.40;99.90;;;;;;5001860;28;20026;-68
2023/03/24 02:15:29;;;;;;;2.10;1.05;;;13.50;99.90;;;;;;5003797;28;20049;-68
2023/03/24 02:18:36;;;;;;;2.15;1.05;;;13.60;99.90;;;;;;4982719;28;20061;-68
2023/03/24 02:21:44;;;;;;;1.77;1.10;;;13.60;99.90;;;;;;4975026;28;20045;-69
2023/03/24 02:24:53;;;;;;;2.92;1.35;;;13.60;99.90;;;;;;5000526;28;20034;-68
2023/03/24 02:27:50;;;;;;;2.72;1.05;;;13.60;99.90;;;;;;5010345;28;20146;-68
2023/03/24 02:30:31;;;;;;;1.05;0.65;;;13.60;99.90;;;;;;5005081;28;20482;-68
2023/03/24 02:33:19;;;;;;;2.42;1.20;;;13.60;99.90;;;;;;4987644;28;20112;-69
2023/03/24 02:36:15;;;;;;;2.28;1.02;;;13.50;99.90;;;;;;5013519;28;20442;-68
2023/03/24 02:39:09;;;;;;;1.77;1.05;;;13.60;99.90;;;;;;4969359;28;20034;-68
2023/03/24 02:42:00;;;;;;;1.75;1.00;;;13.50;99.90;;;;;;5000611;28;20030;-67
2023/03/24 02:44:39;;;;;;;;;;;13.50;99.90;;;;;;5005662;28;20026;-68
2023/03/24 02:47:45;;;;;;;2.63;0.90;;;13.60;99.90;;;;;;4992978;28;19917;-68
2023/03/24 02:50:27;;;;;;;2.50;1.17;;;13.70;99.90;;;;;;4987099;28;20151;-68
2023/03/24 02:53:23;;;;;;;2.67;0.95;;;13.90;99.90;;;;;;4987990;28;20027;-68
2023/03/24 02:56:19;;;;;;;4.80;1.23;;;14.00;99.90;;;;;;4996860;28;20034;-67
2023/03/24 02:59:02;;;;;;;1.83;1.05;;;14.10;99.90;;;;;;5003144;28;20518;-68
2023/03/24 03:01:44;;;;;;;1.10;0.70;;;14.20;99.90;;;;;;4992869;28;20037;-68
2023/03/24 03:04:35;;;;;;;1.65;0.90;;;14.30;99.90;;;;;;5004908;28;20108;-68
2023/03/24 03:07:08;;;;;;;5.47;1.05;;;14.40;99.90;;;;;;4992511;28;20029;-69
2023/03/24 03:09:40;;;;;;;1.60;0.88;;;14.40;99.90;;;;;;4988813;28;20041;-68
2023/03/24 03:12:10;;;;;;;2.35;0.90;;;14.40;99.90;;;;;;5014254;23;20050;-68
2023/03/24 03:14:53;;;;;;;3.40;0.80;;;14.50;99.90;;;;;;4974822;28;20060;-68
2023/03/24 03:17:27;;;;;;;2.03;0.98;;;14.50;99.90;;;;;;4971877;28;20092;-68
2023/03/24 03:20:04;;;;;;;2.53;1.20;;;14.60;99.90;;;;;;4957363;28;20032;-68
2023/03/24 03:22:49;;;;;;;2.63;1.30;;;14.60;99.90;;;;;;4973357;28;20472;-68
2023/03/24 03:25:22;;;;;;;6.32;1.17;;;14.70;99.90;;;;;;4992300;28;20432;-68
2023/03/24 03:27:51;;;;;;;4.43;1.13;;;14.70;99.90;;;;;;4990776;28;20034;-68
2023/03/24 03:30:45;;;;;;;2.50;1.60;;;14.70;99.90;;;;;;4991340;28;20037;-69
2023/03/24 03:33:23;;;;;;;2.10;1.13;;;14.80;99.90;;;;;;5004160;28;20706;-68
2023/03/24 03:36:01;;;;;;;1.75;0.98;;;14.80;99.90;;;;;;4996291;28;20033;-68
2023/03/24 03:38:55;;;;;;;3.38;1.17;;;14.60;99.90;;;;;;4985971;28;20382;-68
2023/03/24 03:41:21;;;;;;;2.40;1.17;;;14.50;99.90;;;;;;5011323;28;20034;-68
2023/03/24 03:43:48;;;;;;;3.03;1.48;;;14.50;99.90;;;;;;4985806;28;20022;-67
2023/03/24 03:46:16;;;;;;;2.38;1.17;;;14.50;99.90;;;;;;4995238;28;20040;-68
2023/03/24 03:48:43;;;;;;;2.67;0.70;;;14.50;99.90;;;;;;4985425;28;20034;-69
2023/03/24 03:51:11;;;;;;;1.20;0.75;;;14.60;99.90;;;;;;4995052;28;20375;-67
2023/03/24 03:53:46;;;;;;;3.58;1.42;;;14.60;99.90;;;;;;4984611;28;20034;-68
2023/03/24 03:56:17;;;;;;;3.47;1.40;;;14.70;99.90;;;;;;5011353;28;20069;-68
2023/03/24 03:58:45;;;;;;;4.03;1.20;;;14.80;99.90;;;;;;4985964;28;20038;-68
2023/03/24 04:01:14;;;;;;;2.15;1.00;;;14.90;99.90;;;;;;5012083;28;20037;-68
2023/03/24 04:04:09;;;;;;;6.20;1.45;;;15.00;99.90;;;;;;4984731;28;20447;-68
2023/03/24 04:06:58;;;;;;;2.30;1.30;;;14.90;99.90;;;;;;4994560;28;20041;-68
2023/03/24 04:09:53;;;;;;;4.68;1.00;;;15.00;99.90;;;;;;5003764;28;20131;-69
2023/03/24 04:12:45;;;;;;;2.28;1.40;;;15.00;99.90;;;;;;5010296;28;20061;-69
2023/03/24 04:16:00;;;;;;;2.38;1.02;;;15.00;99.90;;;;;;4976658;28;20034;-68
2023/03/24 04:19:04;;;;;;;2.40;1.20;;;15.10;99.90;;;;;;4943968;28;20092;-69
2023/03/24 04:21:52;;;;;;;2.50;1.23;;;15.00;99.90;;;;;;4992183;28;20434;-68
2023/03/24 04:24:38;;;;;;;1.92;1.02;;;15.10;99.90;;;;;;5003161;28;20037;-69
2023/03/24 04:27:10;;;;;;;2.33;1.10;;;15.20;99.90;;;;;;4993602;28;20028;-69
2023/03/24 04:30:24;;;;;;;2.30;1.30;;;15.10;99.90;;;;;;5003414;28;20038;-69
2023/03/24 04:32:52;;;;;;;3.85;1.80;;;15.00;99.90;;;;;;5006407;28;20442;-69
2023/03/24 04:35:32;;;;;;;2.15;1.17;;;15.00;99.90;;;;;;4989499;28;20127;-69
2023/03/24 04:38:04;;;;;;;3.33;1.17;;;15.10;99.90;;;;;;5005702;28;20037;-69
2023/03/24 04:40:35;;;;;;;2.15;1.10;;;15.00;99.90;;;;;;4991237;28;20501;-68
2023/03/24 04:43:07;;;;;;;1.88;1.17;;;15.00;99.90;;;;;;4987378;28;20042;-68
2023/03/24 04:45:36;;;;;;;4.45;1.33;;;14.90;99.90;;;;;;5009025;28;20109;-68
2023/03/24 04:48:07;;;;;;;3.08;1.70;;;15.00;99.90;;;;;;5004861;28;20031;-69
2023/03/24 04:50:41;;;;;;;3.67;1.67;;;14.90;99.90;;;;;;4991541;28;20096;-68
2023/03/24 04:53:09;;;;;;;1.92;1.10;;;14.90;99.90;;;;;;4970142;28;20682;-68
2023/03/24 04:56:00;;;;;;;2.05;1.20;;;14.90;99.90;;;;;;4991749;28;20102;-68
2023/03/24 04:58:25;;;;;;;3.05;1.70;;;14.90;99.90;;;;;;5001398;28;20699;-68
2023/03/24 05:00:51;;;;;;;2.90;1.25;;;14.80;99.90;;;;;;5011101;28;20087;-68
2023/03/24 05:03:18;;;;;;;3.58;1.30;;;14.80;99.90;;;;;;4984383;28;20124;-68
2023/03/24 05:05:47;;;;;;;2.58;1.27;;;14.70;99.90;;;;;;5010232;28;20128;-68
2023/03/24 05:08:15;;;;;;;2.65;1.40;;;14.60;99.90;;;;;;5001175;28;20026;-68
2023/03/24 05:10:41;;;;;;;2.55;1.35;;;14.50;99.90;;;;;;4979630;28;20069;-68
2023/03/24 05:13:07;;;;;;;4.53;1.52;;;14.30;99.90;;;;;;4976788;28;20375;-69
2023/03/24 05:15:34;;;;;;;2.33;1.15;;;14.30;99.90;;;;;;4980761;28;20105;-68
2023/03/24 05:18:01;;;;;;;2.22;1.30;;;14.20;99.90;;;;;;4998897;28;20029;-68
2023/03/24 05:20:27;;;;;;;1.65;0.85;;;14.10;99.90;;;;;;4989744;28;20026;-68
2023/03/24 05:22:53;;;;;;;1.75;0.95;;;14.00;99.90;;;;;;4971509;28;20037;-68
2023/03/24 05:25:19;;;;;;;1.75;1.00;;;13.90;99.90;;;;;;5006447;28;20556;-68
2023/03/24 05:27:46;;;;;;;1.95;1.08;;;13.90;99.90;;;;;;4989051;28;20180;-68
2023/03/24 05:30:13;;;;;;;2.30;1.27;;;13.90;99.90;;;;;;4988036;28;20396;-69
2023/03/24 05:32:38;;;;;;;2.22;1.20;;;13.80;99.90;;;;;;5007125;28;20045;-68
2023/03/24 05:35:05;;;;;;;2.78;1.17;;;13.90;99.90;;;;;;5003818;28;20030;-67
2023/03/24 05:37:30;;;;;;;2.63;1.00;;;13.90;99.90;;;;;;5002266;28;20103;-68
2023/03/24 05:39:56;;;;;;;3.65;1.35;;;13.90;99.90;;;;;;5003168;28;20026;-68
2023/03/24 05:42:22;;;;;;;2.30;1.20;;;13.90;99.90;;;;;;4991147;28;20045;-68
2023/03/24 05:44:48;;;;;;;3.42;1.10;;;13.90;99.90;;;;;;4985117;28;20022;-71
2023/03/24 05:47:15;;;;;;;1.25;0.63;;;14.00;99.90;;;;;;4993593;28;20038;-70
2023/03/24 05:49:45;;;;;;;2.97;1.30;;;14.00;99.90;;;;;;4976245;28;20667;-67
2023/03/24 05:52:12;;;;;;;1.73;0.90;;;13.90;99.90;;;;;;4961507;28;20045;-69
2023/03/24 05:54:38;;;;;;;1.88;1.27;;;13.90;99.90;;;;;;4999778;28;20034;-70
2023/03/24 05:57:09;;;;;;;2.75;1.10;;;13.80;99.90;;;;;;4991780;28;20438;-70
2023/03/24 05:59:34;;;;;;;3.50;1.40;;;13.90;99.90;;;;;;4985040;28;20062;-69
2023/03/24 06:02:00;;;;;;;2.92;1.33;;;13.90;99.90;;;;;;4991028;28;20081;-70
2023/03/24 06:04:30;;;;;;;4.60;1.30;;;13.90;99.90;;;;;;4984000;28;20080;-69
2023/03/24 06:06:57;;;;;;;3.05;1.30;;;13.80;99.90;;;;;;4991424;28;20030;-69
2023/03/24 06:09:28;;;;;;;3.58;1.45;;;13.80;99.90;;;;;;5001827;28;20022;-69
2023/03/24 06:11:58;;;;;;;1.70;0.85;;;13.70;99.90;;;;;;5008636;28;20032;-69
2023/03/24 06:14:24;;;;;;;2.38;1.10;;;13.70;99.90;;;;;;5000671;28;20068;-69
2023/03/24 06:16:50;;;;;;;1.95;0.90;;;13.80;99.90;;;;;;4975995;28;20577;-69
2023/03/24 06:19:17;;;;;;;4.30;1.55;;;13.70;99.90;;;;;;4982433;28;20109;-69
2023/03/24 06:21:43;;;;;;;2.88;1.58;;;13.80;99.90;;;;;;4980749;28;20045;-70
2023/03/24 06:24:13;;;;;;;2.85;1.33;;;13.90;99.90;;;;;;4995549;28;20034;-69
2023/03/24 06:26:41;;;;;;;2.38;1.15;;;13.90;99.90;;;;;;5002364;28;20109;-70
2023/03/24 06:29:07;;;;;;;1.95;1.02;;;13.80;99.90;;;;;;4990284;28;20073;-67
2023/03/24 06:31:34;;;;;;;2.33;1.45;;;13.70;99.90;;;;;;5002469;28;20026;-69
2023/03/24 06:34:00;;;;;;;2.72;1.10;;;13.70;99.90;;;;;;5005292;28;20036;-69
2023/03/24 06:36:26;;;;;;;4.35;1.60;;;13.70;99.90;;;;;;4985241;28;20113;-69
2023/03/24 06:38:52;;;;;;;2.70;1.23;;;13.70;99.90;;;;;;4990670;28;20032;-71
2023/03/24 06:41:18;;;;;;;4.97;1.55;;;13.70;99.90;;;;;;5001418;28;20025;-70
2023/03/24 06:43:44;;;;;;;2.97;1.70;;;13.70;99.90;;;;;;5007349;28;20045;-70
2023/03/24 06:46:10;;;;;;;2.90;1.52;;;13.70;99.90;;;;;;4999825;28;20097;-70
2023/03/24 06:48:37;;;;;;;2.50;1.30;;;13.60;99.90;;;;;;4974090;28;20477;-71
2023/03/24 06:51:03;;;;;;;2.83;1.60;;;13.70;99.90;;;;;;4987091;28;20026;-69
2023/03/24 06:53:29;;;;;;;3.00;1.48;;;13.60;99.90;;;;;;5009582;28;20036;-71
2023/03/24 06:55:57;;;;;;;2.53;1.30;;;13.70;99.90;;;;;;5005118;28;20029;-71
2023/03/24 06:58:23;;;;;;;3.17;1.80;;;13.80;99.90;;;;;;5010915;28;20034;-70
2023/03/24 07:00:49;;;;;;;2.80;1.70;;;13.80;99.90;;;;;;5001973;28;20033;-70
2023/03/24 07:03:16;;;;;;;5.10;2.33;;;13.70;99.90;;;;;;4991687;28;20451;-70
2023/03/24 07:05:45;;;;;;;4.75;2.42;;;13.60;99.90;;;;;;5004027;28;20027;-70
2023/03/24 07:08:12;;;;;;;4.05;1.92;;;13.60;99.90;;;;;;5013133;28;20045;-70
2023/03/24 07:10:39;;;;;;;5.07;2.55;;;13.60;99.90;;;;;;5002325;28;20026;-71
2023/03/24 07:13:06;;;;;;;4.38;2.10;;;13.60;99.90;;;;;;5012749;28;20367;-71
2023/03/24 07:15:33;;;;;;;5.00;2.53;;;13.70;99.90;;;;;;4983986;28;20542;-71
2023/03/24 07:17:59;;;;;;;5.55;2.30;;;13.80;99.90;;;;;;4996409;28;20088;-71
2023/03/24 07:20:25;;;;;;;8.13;1.95;;;13.90;99.90;;;;;;4999761;28;20035;-71
2023/03/24 07:22:55;;;;;;;3.70;2.10;;;14.00;99.90;;;;;;4994769;28;20041;-70
2023/03/24 07:25:22;;;;;;;3.08;1.70;;;14.00;99.90;;;;;;4987980;28;20026;-75
2023/03/24 07:27:51;;;;;;;2.80;1.30;;;14.00;99.90;;;;;;4976111;28;20391;-68
2023/03/24 07:30:17;;;;;;;2.38;1.50;;;14.10;99.90;;;;;;4999954;28;20036;-71
2023/03/24 07:32:43;;;;;;;3.10;1.17;;;14.10;99.90;;;;;;5011471;28;20030;-72
2023/03/24 07:35:11;;;;;;;2.80;1.35;;;14.10;99.90;;;;;;4985586;28;20034;-70
2023/03/24 07:37:38;;;;;;;3.17;1.50;;;14.20;99.90;;;;;;5010503;28;20073;-70
2023/03/24 07:40:08;;;;;;;2.28;1.25;;;14.10;99.90;;;;;;4982521;28;20031;-70
2023/03/24 07:42:34;;;;;;;3.88;1.70;;;14.10;99.90;;;;;;5007776;28;20034;-70
2023/03/24 07:45:00;;;;;;;2.65;1.75;;;14.20;99.90;;;;;;5005746;28;20033;-70
2023/03/24 07:47:25;;;;;;;3.47;2.08;;;14.20;99.90;;;;;;4979786;28;20120;-71
2023/03/24 07:49:51;;;;;;;3.33;1.70;;;14.20;99.90;;;;;;5000538;28;20426;-70
2023/03/24 07:52:17;;;;;;;2.33;1.50;;;14.20;99.90;;;;;;5007555;28;20111;-71
2023/03/24 07:54:42;;;;;;;2.13;1.20;;;14.10;99.90;;;;;;5007261;28;20034;-72
2023/03/24 07:57:08;;;;;;;5.25;1.63;;;14.10;99.90;;;;;;5006417;28;20072;-70
2023/03/24 07:59:35;;;;;;;3.67;2.05;;;14.00;99.90;;;;;;4996111;28;20375;-70
2023/03/24 08:02:00;;;;;;;3.63;1.83;;;14.10;99.90;;;;;;4991632;28;20069;-70
2023/03/24 08:04:27;;;;;;;3.58;1.60;;;14.00;99.90;;;;;;4999257;28;20026;-69
2023/03/24 08:06:53;;;;;;;2.00;1.23;;;14.10;99.90;;;;;;5004256;28;20053;-70
2023/03/24 08:09:19;;;;;;;2.35;1.38;;;14.10;99.90;;;;;;4992072;28;20073;-69
2023/03/24 08:11:45;;;;;;;3.65;1.73;;;14.00;99.90;;;;;;4986335;28;20056;-69
2023/03/24 08:14:11;;;;;;;2.40;1.40;;;14.00;99.90;;;;;;5009393;28;20030;-70
2023/03/24 08:16:37;;;;;;;3.60;2.10;;;14.00;99.90;;;;;;4998264;28;20037;-69
2023/03/24 08:19:03;;;;;;;2.72;1.52;;;14.10;99.90;;;;;;4996907;28;20028;-69
2023/03/24 08:21:29;;;;;;;3.08;1.50;;;14.00;99.90;;;;;;4958799;28;20039;-69
2023/03/24 08:23:55;;;;;;;3.22;1.83;;;14.00;99.90;;;;;;4984578;28;20034;-70
2023/03/24 08:26:21;;;;;;;2.22;1.10;;;14.00;99.90;;;;;;4992974;28;20030;-69
2023/03/24 08:28:48;;;;;;;3.67;1.50;;;14.00;99.90;;;;;;4932181;28;20125;-70
2023/03/24 08:31:14;;;;;;;2.53;1.17;;;14.10;99.90;;;;;;4972655;28;20058;-69
2023/03/24 08:33:40;;;;;;;2.55;1.20;;;13.90;99.90;;;;;;4993449;28;20034;-69
2023/03/24 08:36:07;;;;;;;1.75;0.95;;;14.00;99.90;;;;;;4979989;28;20099;-69
2023/03/24 08:38:33;;;;;;;3.58;1.20;;;13.90;99.90;;;;;;4992449;28;20117;-69
2023/03/24 08:41:05;;;;;;;1.75;0.98;;;14.00;99.90;;;;;;4971489;28;20034;-69
2023/03/24 08:43:33;;;;;;;2.22;1.33;;;13.90;99.90;;;;;;4982086;28;20429;-69
2023/03/24 08:46:00;;;;;;;1.52;0.93;;;14.00;99.90;;;;;;4999464;28;20060;-69
2023/03/24 08:48:28;;;;;;;2.75;1.42;;;14.00;99.90;;;;;;4973156;28;20025;-69
2023/03/24 08:50:55;;;;;;;2.53;1.15;;;13.90;99.90;;;;;;4981181;28;20030;-70
2023/03/24 08:53:21;;;;;;;8.45;1.23;;;13.90;99.90;;;;;;4987512;28;20038;-69
2023/03/24 08:55:47;;;;;;;2.45;1.30;;;13.90;99.90;;;;;;4985269;28;20040;-69
2023/03/24 08:58:15;;;;;;;3.95;1.10;;;13.90;99.90;;;;;;4992944;28;20033;-69
2023/03/24 09:00:43;;;;;;;2.25;1.10;;;13.90;99.90;;;;;;4983488;28;20117;-69
2023/03/24 09:03:16;;;;;;;5.88;2.17;;;13.90;99.90;;;;;;4983535;28;20549;-69
2023/03/24 09:05:44;;;;;;;2.30;1.25;;;14.00;99.90;;;;;;4971454;28;20435;-69
2023/03/24 09:08:15;;;;;;;2.60;1.27;;;14.00;99.90;;;;;;5001293;28;20064;-69
2023/03/24 09:10:42;;;;;;;1.80;1.20;;;14.00;99.90;;;;;;4969444;28;20078;-69
2023/03/24 09:13:09;;;;;;;1.27;0.80;;;14.00;99.90;;;;;;4969914;28;20112;-70
2023/03/24 09:15:35;;;;;;;1.13;0.80;;;13.90;99.90;;;;;;4990520;28;20042;-70
2023/03/24 09:18:01;;;;;;;1.70;1.15;;;13.90;99.90;;;;;;4973852;28;20243;-70
2023/03/24 09:20:27;;;;;;;2.35;1.20;;;13.90;99.90;;;;;;4980021;28;20502;-69
2023/03/24 09:22:54;;;;;;;3.75;1.15;;;14.00;99.90;;;;;;5009321;28;20037;-69
2023/03/24 09:25:22;;;;;;;1.80;0.93;;;14.00;99.90;;;;;;4999252;28;20169;-69
2023/03/24 09:27:48;;;;;;;5.45;1.13;;;13.90;99.90;;;;;;4993087;28;20026;-69
2023/03/24 09:30:17;;;;;;;1.63;1.00;;;13.90;99.90;;;;;;4994853;28;20030;-71
2023/03/24 09:32:44;;;;;;;1.70;1.00;;;13.90;99.90;;;;;;4977564;28;20200;-70
2023/03/24 09:35:11;;;;;;;3.30;1.30;;;13.90;99.90;;;;;;4975048;28;20180;-70
2023/03/24 09:37:38;;;;;;;2.08;1.30;;;13.90;99.90;;;;;;4982890;28;20432;-69
2023/03/24 09:40:06;;;;;;;2.70;1.35;;;14.00;99.90;;;;;;4974716;28;20395;-69
2023/03/24 09:42:39;;;;;;;4.63;2.28;;;14.00;99.90;;;;;;5000996;28;20041;-70
2023/03/24 09:45:17;;;;;;;1.42;1.23;;;13.90;99.90;;;;;;4998371;28;20030;-70
2023/03/24 09:47:56;;;;;;;2.08;1.15;;;14.00;99.90;;;;;;4961853;28;20034;-70
2023/03/24 09:51:06;;;;;;;4.13;1.25;;;14.00;99.90;;;;;;4981374;28;20034;-70
2023/03/24 09:54:21;;;;;;;3.08;1.73;;;14.10;99.90;;;;;;4911177;29;20036;-70
2023/03/24 09:56:48;;;;;;;1.90;1.15;;;14.10;99.90;;;;;;4910524;29;20043;-70
2023/03/24 09:59:38;;;;;;;1.85;1.30;;;14.00;99.90;;;;;;4919484;29;20031;-70
2023/03/24 10:02:14;;;;;;;1.87;1.27;;;14.00;99.90;;;;;;4896229;29;20051;-70
2023/03/24 10:04:40;;;;;;;2.10;1.10;;;14.00;99.90;;;;;;4895684;29;20051;-70
2023/03/24 10:07:21;;;;;;;1.50;0.93;;;14.00;99.90;;;;;;4910891;29;20040;-70
2023/03/24 10:09:58;;;;;;;2.53;1.42;;;14.00;99.90;;;;;;4911301;29;20090;-70
2023/03/24 10:12:39;;;;;;;2.10;0.93;;;14.00;99.90;;;;;;4910571;29;20566;-70
2023/03/24 10:15:23;;;;;;;2.88;1.27;;;14.00;99.90;;;;;;4877079;29;20044;-70
2023/03/24 10:18:05;;;;;;;6.55;1.15;;;14.00;99.90;;;;;;4910457;29;20067;-70
2023/03/24 10:20:50;;;;;;;4.97;1.10;;;14.00;99.90;;;;;;4895022;29;20107;-70
2023/03/24 10:23:24;;;;;;;2.83;1.60;;;14.00;99.90;;;;;;4901682;28;20544;-71
2023/03/24 10:26:24;;;;;;;2.75;1.10;;;14.00;99.90;;;;;;4984329;28;20034;-70
2023/03/24 10:28:54;;;;;;;2.55;1.50;;;14.00;99.90;;;;;;5005559;28;20033;-70
2023/03/24 10:31:32;;;;;;;1.93;0.80;;;13.90;99.90;;;;;;4976638;28;20049;-70
2023/03/24 10:33:59;;;;;;;2.75;1.77;;;13.90;99.90;;;;;;4982538;28;20030;-70
2023/03/24 10:36:26;;;;;;;12.52;1.65;;;13.90;99.90;;;;;;4993025;28;20116;-71
2023/03/24 10:38:52;;;;;;;2.78;1.30;;;13.80;99.90;;;;;;4980724;28;20025;-70
2023/03/24 10:41:22;;;;;;;4.53;1.33;;;13.80;99.90;;;;;;5008042;28;20049;-70
2023/03/24 10:43:51;;;;;;;1.50;1.02;;;13.80;99.90;;;;;;5005327;28;20026;-71
2023/03/24 10:46:24;;;;;;;11.55;3.92;;;13.90;99.90;;;;;;4989354;28;20101;-69
2023/03/24 10:49:08;;;;;;;2.90;1.50;;;13.80;99.90;;;;;;4997446;28;20080;-70
2023/03/24 10:51:35;;;;;;;2.95;1.63;;;13.90;99.90;;;;;;4974275;28;20125;-69
2023/03/24 10:54:24;;;;;;;2.17;1.17;;;13.90;99.90;;;;;;5006660;28;20430;-69
2023/03/24 10:56:59;;;;;;;2.35;1.35;;;13.90;99.90;;;;;;5005373;28;20034;-69
2023/03/24 10:59:36;;;;;;;6.10;1.02;;;13.90;99.90;;;;;;5009830;28;20057;-69
2023/03/24 11:02:08;;;;;;;0.82;0.63;;;14.00;99.90;;;;;;5004527;28;20775;-70
2023/03/24 11:04:40;;;;;;;0.40;0.40;;;14.00;99.90;;;;;;5010938;28;20363;-71
2023/03/24 11:07:21;;;;;;;2.38;0.47;;;13.60;99.90;;;;;;4987163;28;20789;-70
2023/03/24 11:10:24;;;;;;;1.73;0.22;;;12.90;99.90;;;;;;4995519;28;20639;-70
2023/03/24 11:12:52;;;;;;;0.63;0.20;;;12.40;99.90;;;;;;4987928;28;20045;-70
2023/03/24 11:15:30;;;;;;;0.22;0.22;;;12.10;99.90;;;;;;5010130;28;20382;-70
2023/03/24 11:18:11;;;;;;;0.85;0.30;;;12.10;99.90;;;;;;4981140;28;20049;-70
2023/03/24 11:20:55;;;;;;;0.77;0.40;;;12.20;99.90;;;;;;4992508;28;20478;-69
2023/03/24 11:23:31;;;;;;;0.43;0.20;;;12.30;99.90;;;;;;4987720;28;20041;-70
2023/03/24 11:26:32;;;;;;;3.55;0.40;;;12.30;99.90;;;;;;4989661;28;20022;-70
2023/03/24 11:29:06;;;;;;;0.90;0.40;;;12.50;99.90;;;;;;4997634;28;20079;-70
2023/03/24 11:31:37;;;;;;;1.35;0.35;;;12.60;99.90;;;;;;5008153;28;20120;-70
2023/03/24 11:34:15;;;;;;;1.17;0.30;;;12.70;99.90;;;;;;4987494;28;20470;-71
2023/03/24 11:36:47;;;;;;;1.42;0.28;;;12.80;99.90;;;;;;4989628;28;20092;-70
2023/03/24 11:39:31;;;;;;;0.70;0.40;;;12.90;99.90;;;;;;4990624;28;20025;-70
2023/03/24 11:42:09;;;;;;;0.50;0.20;;;12.90;99.90;;;;;;5004675;28;20029;-70
2023/03/24 11:44:38;;;;;;;3.83;1.73;;;13.00;99.90;;;;;;5010324;28;20038;-70
2023/03/24 11:47:25;;;;;;;2.95;0.77;;;13.00;99.90;;;;;;5005002;28;20606;-70
2023/03/24 11:50:08;;;;;;;3.55;0.65;;;13.10;99.90;;;;;;4957205;28;20038;-70
2023/03/24 11:53:17;;;;;;;4.70;2.22;;;13.10;99.90;;;;;;5002960;28;20042;-70
2023/03/24 11:56:01;;;;;;;3.10;0.38;;;13.20;99.90;;;;;;4990181;28;20058;-70
2023/03/24 11:59:20;;;;;;;0.47;0.28;;;13.30;99.90;;;;;;5004277;28;20438;-69
2023/03/24 12:02:34;;;;;;;1.55;0.52;;;13.30;99.90;;;;;;5005205;28;20081;-70
2023/03/24 12:05:19;;;;;;;0.82;0.40;;;13.40;99.90;;;;;;4936498;28;20038;-70
2023/03/24 12:08:26;;;;;;;0.68;0.25;;;13.50;99.90;;;;;;4986681;28;20038;-69
2023/03/24 12:11:05;;;;;;;0.43;0.30;;;13.70;99.90;;;;;;5004215;28;20038;-69
2023/03/24 12:13:32;;;;;;;0.82;0.52;;;13.80;99.90;;;;;;4986775;28;20033;-69
2023/03/24 12:16:27;;;;;;;2.40;0.80;;;13.90;99.90;;;;;;4988426;28;20061;-69
2023/03/24 12:19:14;;;;;;;4.38;0.30;;;13.80;99.90;;;;;;4996479;28;20034;-69
2023/03/24 12:22:09;;;;;;;0.90;0.30;;;13.80;99.90;;;;;;5006178;28;20121;-69
2023/03/24 12:25:16;;;;;;;0.40;0.20;;;13.90;99.90;;;;;;4978159;28;20123;-69
2023/03/24 12:28:07;;;;;;;6.43;0.68;;;13.90;99.90;;;;;;4972111;28;20493;-70
2023/03/24 12:31:14;;;;;;;3.10;0.40;;;14.20;99.90;;;;;;4991042;28;20436;-71
2023/03/24 12:34:34;;;;;;;0.32;0.20;;;14.30;99.90;;;;;;5003444;28;20096;-70
2023/03/24 12:37:29;;;;;;;1.63;0.32;;;15.00;99.90;;;;;;5003338;28;20033;-70
2023/03/24 12:40:19;;;;;;;0.28;0.10;;;15.70;99.90;;;;;;4972618;28;20026;-70
2023/03/24 12:42:45;;;;;;;0.40;0.30;;;16.30;99.90;;;;;;4984175;28;20034;-70
2023/03/24 12:45:55;;;;;;;4.35;1.20;;;16.50;99.90;;;;;;5009547;28;20034;-70
2023/03/24 12:48:47;;;;;;;0.95;0.52;;;17.10;99.90;;;;;;4987724;28;20399;-70
2023/03/24 12:51:53;;;;;;;0.50;0.30;;;16.80;99.90;;;;;;4984485;28;20037;-70
2023/03/24 12:55:03;;;;;;;0.75;0.52;;;16.20;99.90;;;;;;4990260;28;20030;-70
2023/03/24 12:57:36;;;;;;;1.90;0.80;;;16.70;99.90;;;;;;4985284;28;20049;-70
2023/03/24 13:00:16;;;;;;;1.33;0.80;;;16.60;99.90;;;;;;4993737;28;20095;-70
2023/03/24 13:03:10;;;;;;;1.05;0.52;;;16.20;99.90;;;;;;4984085;28;20113;-69
2023/03/24 13:05:52;;;;;;;0.32;0.32;;;16.20;99.90;;;;;;4990781;28;20045;-69
2023/03/24 13:08:28;;;;;;;1.98;0.80;;;16.70;99.90;;;;;;4985894;28;20553;-69
2023/03/24 13:11:03;;;;;;;1.13;0.68;;;16.50;99.90;;;;;;4990781;28;20494;-70
2023/03/24 13:13:36;;;;;;;2.05;1.05;;;16.50;99.90;;;;;;4985478;28;20057;-70
2023/03/24 13:16:21;;;;;;;1.02;0.65;;;17.30;99.90;;;;;;5006590;28;20046;-70
2023/03/24 13:18:53;;;;;;;3.05;0.68;;;17.60;99.90;;;;;;4999475;28;20045;-70
2023/03/24 13:21:23;;;;;;;4.53;1.00;;;17.40;99.90;;;;;;4980866;28;20037;-70
2023/03/24 13:24:07;;;;;;;1.88;0.82;;;16.80;99.90;;;;;;4985221;28;20041;-70
2023/03/24 13:26:38;;;;;;;2.70;0.70;;;16.70;99.90;;;;;;5006159;28;20135;-70